• Join FlightAware (Why Join?)
  • Login
  • US Flag 
08:11PM EST


 

Airport Tracker/Info


-or-


 

Live Flight TrackerFlight Track Log ✈ CDG1157 ✈ 09-Apr-2014 ✈ ZSWY / WUS - ZSJN / TNA

Flight Track Log - Related Links

Times and Time Zones

All times are in EDT time to prevent confusion due to time zone crossing. See the CDG1157 flight status page for this flight to view local times or setup timezone preferences in your user account.

Time Position Orientation Groundspeed Altitude Reporting Facility
EDT Latitude Longitude Course Direction KTS MPH feet Rate Location/Type
02:33AM 29.0103 117.8983 356° North  Level Estimated
02:34AM 29.0873 117.8921 356° North  Level Estimated
02:35AM 29.1642 117.8860 356° North  Level Estimated
02:36AM 29.2412 117.8798 356° North  Level Estimated
02:37AM 29.3182 117.8736 356° North  Level Estimated
02:38AM 29.3951 117.8675 356° North  Level Estimated
02:39AM 29.4721 117.8613 356° North  Level Estimated
02:40AM 29.5490 117.8551 356° North  Level Estimated
02:41AM 29.6260 117.8489 356° North  Level Estimated
02:42AM 29.7030 117.8426 356° North  Level Estimated
02:43AM 29.7799 117.8364 356° North  Level Estimated
02:44AM 29.8569 117.8302 356° North  Level Estimated
02:45AM 29.9338 117.8239 356° North  Level Estimated
02:46AM 30.0108 117.8177 356° North  Level Estimated
02:47AM 30.0877 117.8114 356° North  Level Estimated
02:48AM 30.1647 117.8051 356° North  Level Estimated
02:49AM 30.2417 117.7988 356° North  Level Estimated
02:50AM 30.3186 117.7925 356° North  Level Estimated
02:51AM 30.3956 117.7862 356° North  Level Estimated
02:52AM 30.4725 117.7799 356° North  Level Estimated
02:53AM 30.5495 117.7736 356° North  Level Estimated
02:54AM 30.6264 117.7672 356° North  Level Estimated
02:55AM 30.7034 117.7609 356° North  Level Estimated
02:56AM 30.7803 117.7545 356° North  Level Estimated
02:57AM 30.8573 117.7482 356° North  Level Estimated
02:58AM 30.9342 117.7418 356° North  Level Estimated
02:59AM 31.0112 117.7354 356° North  Level Estimated
03:00AM 31.0882 117.7290 356° North  Level Estimated
03:01AM 31.1651 117.7226 356° North  Level Estimated
03:02AM 31.2421 117.7162 356° North  Level Estimated
03:03AM 31.3190 117.7097 356° North  Level Estimated
03:04AM 31.3960 117.7033 356° North  Level Estimated
03:05AM 31.4729 117.6969 356° North  Level Estimated
03:06AM 31.5499 117.6904 356° North  Level Estimated
03:07AM 31.6268 117.6839 356° North  Level Estimated
03:08AM 31.7038 117.6774 356° North  Level Estimated
03:09AM 31.7807 117.6709 356° North  Level Estimated
03:10AM 31.8577 117.6644 356° North  Level Estimated
03:11AM 31.9346 117.6579 356° North  Level Estimated
03:12AM 32.0116 117.6514 356° North  Level Estimated
03:13AM 32.0885 117.6449 356° North  Level Estimated
03:14AM 32.1655 117.6383 356° North  Level Estimated
03:15AM 32.2424 117.6318 356° North  Level Estimated
03:16AM 32.3194 117.6252 356° North  Level Estimated
03:17AM 32.3963 117.6186 356° North  Level Estimated
03:18AM 32.4733 117.6120 356° North  Level Estimated
03:19AM 32.5502 117.6054 356° North  Level Estimated
03:20AM 32.6272 117.5988 356° North  Level Estimated
03:21AM 32.7041 117.5921 356° North  Level Estimated
03:22AM 32.7811 117.5855 356° North  Level Estimated
03:23AM 32.8580 117.5789 356° North  Level Estimated
03:24AM 32.9349 117.5722 356° North  Level Estimated
03:25AM 33.0119 117.5655 356° North  Level Estimated
03:26AM 33.0888 117.5589 356° North  Level Estimated
03:27AM 33.1658 117.5521 356° North  Level Estimated
03:28AM 33.2427 117.5454 356° North  Level Estimated
03:29AM 33.3197 117.5387 356° North  Level Estimated
03:30AM 33.3966 117.5320 356° North  Level Estimated
03:31AM 33.4735 117.5252 356° North  Level Estimated
03:32AM 33.5505 117.5185 356° North  Level Estimated
03:33AM 33.6274 117.5117 356° North  Level Estimated
03:34AM 33.7044 117.5049 356° North  Level Estimated
03:35AM 33.7813 117.4982 356° North  Level Estimated
03:36AM 33.8582 117.4913 356° North  Level Estimated
03:37AM 33.9352 117.4845 356° North  Level Estimated
03:38AM 34.0121 117.4777 356° North  Level Estimated
03:39AM 34.0891 117.4709 356° North  Level Estimated
03:40AM 34.1660 117.4640 356° North  Level Estimated
03:41AM 34.2430 117.4571 356° North  Level Estimated
03:42AM 34.3199 117.4503 356° North  Level Estimated
03:43AM 34.3968 117.4434 356° North  Level Estimated
03:44AM 34.4738 117.4365 356° North  Level Estimated
03:45AM 34.5507 117.4295 356° North  Level Estimated
03:46AM 34.6276 117.4226 356° North  Level Estimated
03:47AM 34.7046 117.4157 356° North  Level Estimated
03:48AM 34.7815 117.4087 356° North  Level Estimated
03:49AM 34.8584 117.4017 356° North  Level Estimated
03:50AM 34.9354 117.3948 356° North  Level Estimated
03:51AM 35.0123 117.3878 356° North  Level Estimated
03:52AM 35.0892 117.3808 356° North  Level Estimated
03:53AM 35.1662 117.3737 356° North  Level Estimated
03:54AM 35.2431 117.3667 356° North  Level Estimated
03:55AM 35.3200 117.3597 356° North  Level Estimated
03:56AM 35.3970 117.3526 356° North  Level Estimated
03:57AM 35.4739 117.3455 356° North  Level Estimated
03:58AM 35.5508 117.3384 356° North  Level Estimated
03:59AM 35.6278 117.3313 356° North  Level Estimated
04:00AM 35.7047 117.3242 356° North  Level Estimated
04:01AM 35.7816 117.3171 356° North  Level Estimated
04:02AM 35.8586 117.3100 356° North  Level Estimated
04:03AM 35.9355 117.3028 356° North  Level Estimated
04:04AM 36.0124 117.2956 356° North  Level Estimated
04:05AM 36.0894 117.2884 356° North  Level Estimated
04:06AM 36.1663 117.2812 356° North  Level Estimated
04:07AM 36.2432 117.2740 356° North  Level Estimated
04:08AM 36.3201 117.2668 356° North  Level Estimated
04:09AM 36.3971 117.2596 356° North  Level Estimated
04:10AM 36.4740 117.2523 356° North  Level Estimated
04:11AM 36.5509 117.2450 356° North  Level Estimated
04:12AM 36.6278 117.2377 356° North  Level Estimated
04:13AM 36.7048 117.2304 356° North  Level Estimated
04:14AM 36.7817 117.2231 356° North  Level Estimated
04:15AM 36.8566 117.2160 356° North  Level Estimated
04:16AM 36.8566 117.2160 North  Level Estimated
04:17AM 36.8566 117.2160 North  Level Estimated
04:18AM 36.8566 117.2160 North  Level Estimated
04:19AM 36.8566 117.2160 North  Level Estimated
04:20AM 36.8566 117.2160 North  Level Estimated
04:21AM 36.8566 117.2160 North  Level Estimated
04:22AM 36.8566 117.2160 North  Level Estimated
04:23AM 36.8566 117.2160 North  Level Estimated
04:24AM 36.8566 117.2160 North  Level Estimated
04:25AM 36.8566 117.2160 North  Level Estimated
04:26AM 36.8566 117.2160 North  Level Estimated
04:27AM 36.8566 117.2160 North  Level Estimated
04:28AM 36.8566 117.2160 North  Level Estimated